Branyan, Mississippi
Current Conditions -  °F | °C
As of 1:53 PM on Monday 26 Jan 2015 (Local Time) from KTUP Reporting Station
Clear Clear  
Wind Chill: 45°   Ceiling: Unl
Heat Index: 49°   Visibility: 10mi
Dew Point: 30°   Wind: 9mph
Humidity: 48%   Direction: 340°NNW
Pressure: 30.03"   Gusts: 16mph
Location:  34.4333°N, 88.8629°W
Report Text: KTUP 261953Z 34008G14KT 10SM CLR 09/M01 A3003 RMK AO2 SLP170 T00941011
Loading
Personal Weather Stations






























Interactive Weather Map New forecast layout! Learn more

10-Day Weather Forecast

Advertisements
Track Severe Weather on mobile